sensor_id;sensor_type;location;lat;lon;timestamp;P1;durP1;ratioP1;P2;durP2;ratioP2
2662;SDS011;49701;48.072;7.800;2024-01-30T07:46:21;5.60;;;3.72;;
2662;SDS011;49701;48.072;7.800;2024-01-30T07:48:46;5.97;;;3.63;;
2662;SDS011;49701;48.072;7.800;2024-01-30T10:31:58;11.63;;;3.55;;
2662;SDS011;49701;48.072;7.800;2024-01-30T10:34:24;4.55;;;2.75;;
2662;SDS011;49701;48.072;7.800;2024-01-30T10:36:51;6.50;;;2.67;;
2662;SDS011;49701;48.072;7.800;2024-01-30T10:41:53;7.70;;;2.60;;
2662;SDS011;49701;48.072;7.800;2024-01-30T10:44:24;6.60;;;3.05;;
2662;SDS011;49701;48.072;7.800;2024-01-30T10:46:56;4.93;;;2.30;;
2662;SDS011;49701;48.072;7.800;2024-01-30T10:49:28;2.88;;;2.28;;
2662;SDS011;49701;48.072;7.800;2024-01-30T10:51:54;7.43;;;2.70;;
2662;SDS011;49701;48.072;7.800;2024-01-30T10:54:21;9.23;;;3.22;;
2662;SDS011;49701;48.072;7.800;2024-01-30T11:01:41;4.35;;;2.10;;
2662;SDS011;49701;48.072;7.800;2024-01-30T11:06:40;5.90;;;2.45;;
2662;SDS011;49701;48.072;7.800;2024-01-30T11:09:09;2.70;;;2.00;;
2662;SDS011;49701;48.072;7.800;2024-01-30T11:11:56;4.35;;;1.88;;
2662;SDS011;49701;48.072;7.800;2024-01-30T11:14:26;4.32;;;2.20;;
2662;SDS011;49701;48.072;7.800;2024-01-30T11:16:57;5.53;;;2.10;;
2662;SDS011;49701;48.072;7.800;2024-01-30T11:19:24;5.78;;;3.25;;
2662;SDS011;49701;48.072;7.800;2024-01-30T11:21:51;4.50;;;2.47;;
2662;SDS011;49701;48.072;7.800;2024-01-30T11:24:22;3.08;;;1.95;;
2662;SDS011;49701;48.072;7.800;2024-01-30T11:27:07;1.88;;;1.58;;
2662;SDS011;49701;48.072;7.800;2024-01-30T11:29:35;3.55;;;2.20;;
2662;SDS011;49701;48.072;7.800;2024-01-30T11:32:01;2.38;;;1.75;;
2662;SDS011;49701;48.072;7.800;2024-01-30T11:34:27;3.25;;;1.95;;
2662;SDS011;49701;48.072;7.800;2024-01-30T11:36:56;3.05;;;2.30;;
2662;SDS011;49701;48.072;7.800;2024-01-30T11:39:24;6.63;;;1.90;;
2662;SDS011;49701;48.072;7.800;2024-01-30T11:41:51;5.65;;;2.13;;
2662;SDS011;49701;48.072;7.800;2024-01-30T11:44:19;3.75;;;2.38;;
2662;SDS011;49701;48.072;7.800;2024-01-30T11:46:48;3.30;;;2.35;;
2662;SDS011;49701;48.072;7.800;2024-01-30T11:49:18;3.80;;;2.33;;
2662;SDS011;49701;48.072;7.800;2024-01-30T11:51:47;4.30;;;2.08;;
2662;SDS011;49701;48.072;7.800;2024-01-30T12:43:14;7.53;;;4.05;;
2662;SDS011;49701;48.072;7.800;2024-01-30T12:45:41;4.82;;;3.00;;
2662;SDS011;49701;48.072;7.800;2024-01-30T12:48:07;4.38;;;2.58;;
2662;SDS011;49701;48.072;7.800;2024-01-30T12:50:33;3.70;;;2.85;;
2662;SDS011;49701;48.072;7.800;2024-01-30T12:52:59;5.80;;;2.85;;
2662;SDS011;49701;48.072;7.800;2024-01-30T12:55:25;6.57;;;2.35;;
2662;SDS011;49701;48.072;7.800;2024-01-30T12:57:53;5.28;;;2.60;;
2662;SDS011;49701;48.072;7.800;2024-01-30T13:00:20;4.70;;;2.30;;
2662;SDS011;49701;48.072;7.800;2024-01-30T13:02:45;3.53;;;2.55;;
2662;SDS011;49701;48.072;7.800;2024-01-30T13:05:13;4.85;;;2.97;;
2662;SDS011;49701;48.072;7.800;2024-01-30T13:07:38;5.50;;;3.17;;
2662;SDS011;49701;48.072;7.800;2024-01-30T13:10:04;4.28;;;3.08;;
2662;SDS011;49701;48.072;7.800;2024-01-30T13:12:31;6.38;;;2.95;;
2662;SDS011;49701;48.072;7.800;2024-01-30T13:14:58;6.13;;;2.95;;
2662;SDS011;49701;48.072;7.800;2024-01-30T13:17:26;5.72;;;3.03;;
2662;SDS011;49701;48.072;7.800;2024-01-30T13:19:52;5.65;;;3.22;;
2662;SDS011;49701;48.072;7.800;2024-01-30T13:22:19;4.03;;;2.45;;
2662;SDS011;49701;48.072;7.800;2024-01-30T13:24:46;7.00;;;2.92;;
2662;SDS011;49701;48.072;7.800;2024-01-30T13:27:12;5.35;;;2.50;;
2662;SDS011;49701;48.072;7.800;2024-01-30T13:29:38;4.63;;;2.40;;
2662;SDS011;49701;48.072;7.800;2024-01-30T13:32:04;12.70;;;3.40;;
2662;SDS011;49701;48.072;7.800;2024-01-30T13:34:30;7.50;;;2.58;;
2662;SDS011;49701;48.072;7.800;2024-01-30T13:36:56;4.50;;;2.80;;
2662;SDS011;49701;48.072;7.800;2024-01-30T13:39:22;3.38;;;2.47;;
2662;SDS011;49701;48.072;7.800;2024-01-30T13:41:48;4.78;;;2.42;;
2662;SDS011;49701;48.072;7.800;2024-01-30T13:44:15;2.95;;;2.53;;
2662;SDS011;49701;48.072;7.800;2024-01-30T13:46:41;3.65;;;2.25;;
2662;SDS011;49701;48.072;7.800;2024-01-30T13:49:07;5.45;;;2.65;;
2662;SDS011;49701;48.072;7.800;2024-01-30T13:51:33;3.30;;;2.38;;
2662;SDS011;49701;48.072;7.800;2024-01-30T13:53:59;4.22;;;2.53;;
2662;SDS011;49701;48.072;7.800;2024-01-30T13:56:25;3.13;;;2.40;;
2662;SDS011;49701;48.072;7.800;2024-01-30T13:58:54;4.30;;;2.63;;
2662;SDS011;49701;48.072;7.800;2024-01-30T14:01:21;3.85;;;2.53;;
2662;SDS011;49701;48.072;7.800;2024-01-30T14:03:47;4.18;;;2.88;;
2662;SDS011;49701;48.072;7.800;2024-01-30T14:06:13;5.45;;;3.05;;
2662;SDS011;49701;48.072;7.800;2024-01-30T14:08:39;3.72;;;3.15;;
2662;SDS011;49701;48.072;7.800;2024-01-30T14:11:05;4.30;;;3.78;;
2662;SDS011;49701;48.072;7.800;2024-01-30T14:13:30;8.85;;;3.17;;
2662;SDS011;49701;48.072;7.800;2024-01-30T14:15:57;5.65;;;3.33;;
2662;SDS011;49701;48.072;7.800;2024-01-30T14:18:24;4.68;;;3.22;;
2662;SDS011;49701;48.072;7.800;2024-01-30T14:20:50;3.17;;;2.40;;
2662;SDS011;49701;48.072;7.800;2024-01-30T14:23:18;5.78;;;3.10;;
2662;SDS011;49701;48.072;7.800;2024-01-30T14:25:46;4.50;;;2.90;;
2662;SDS011;49701;48.072;7.800;2024-01-30T14:28:12;6.63;;;3.25;;
2662;SDS011;49701;48.072;7.800;2024-01-30T14:30:38;7.50;;;3.03;;
2662;SDS011;49701;48.072;7.800;2024-01-30T14:33:03;4.80;;;3.28;;
2662;SDS011;49701;48.072;7.800;2024-01-30T14:35:29;5.95;;;2.88;;
2662;SDS011;49701;48.072;7.800;2024-01-30T14:37:55;5.15;;;3.25;;
2662;SDS011;49701;48.072;7.800;2024-01-30T14:40:20;4.55;;;3.00;;
2662;SDS011;49701;48.072;7.800;2024-01-30T14:42:46;5.57;;;3.35;;
2662;SDS011;49701;48.072;7.800;2024-01-30T14:45:12;5.10;;;3.03;;
2662;SDS011;49701;48.072;7.800;2024-01-30T14:47:38;7.13;;;3.28;;
2662;SDS011;49701;48.072;7.800;2024-01-30T14:50:04;4.90;;;3.17;;
2662;SDS011;49701;48.072;7.800;2024-01-30T14:52:30;7.50;;;3.10;;
2662;SDS011;49701;48.072;7.800;2024-01-30T14:54:56;5.47;;;3.00;;
2662;SDS011;49701;48.072;7.800;2024-01-30T14:57:23;6.95;;;3.15;;
2662;SDS011;49701;48.072;7.800;2024-01-30T14:59:49;5.75;;;3.03;;
2662;SDS011;49701;48.072;7.800;2024-01-30T15:02:15;7.10;;;4.55;;
2662;SDS011;49701;48.072;7.800;2024-01-30T15:04:41;3.85;;;3.20;;
2662;SDS011;49701;48.072;7.800;2024-01-30T15:07:07;4.15;;;3.13;;
2662;SDS011;49701;48.072;7.800;2024-01-30T15:09:33;6.15;;;3.42;;
2662;SDS011;49701;48.072;7.800;2024-01-30T15:11:58;4.95;;;2.90;;
2662;SDS011;49701;48.072;7.800;2024-01-30T15:14:24;5.88;;;2.90;;
2662;SDS011;49701;48.072;7.800;2024-01-30T15:16:50;3.70;;;3.08;;
2662;SDS011;49701;48.072;7.800;2024-01-30T15:19:15;5.55;;;3.25;;
2662;SDS011;49701;48.072;7.800;2024-01-30T15:21:41;15.15;;;7.80;;
2662;SDS011;49701;48.072;7.800;2024-01-30T15:24:07;12.52;;;6.45;;
2662;SDS011;49701;48.072;7.800;2024-01-30T15:26:33;6.85;;;4.18;;
2662;SDS011;49701;48.072;7.800;2024-01-30T15:28:58;10.13;;;6.28;;
2662;SDS011;49701;48.072;7.800;2024-01-30T15:31:24;4.97;;;3.92;;
2662;SDS011;49701;48.072;7.800;2024-01-30T15:33:49;4.40;;;3.40;;
2662;SDS011;49701;48.072;7.800;2024-01-30T15:36:15;7.78;;;5.10;;
2662;SDS011;49701;48.072;7.800;2024-01-30T15:38:41;9.80;;;7.05;;
2662;SDS011;49701;48.072;7.800;2024-01-30T15:41:07;9.48;;;7.05;;
2662;SDS011;49701;48.072;7.800;2024-01-30T15:43:33;8.20;;;5.18;;
2662;SDS011;49701;48.072;7.800;2024-01-30T15:45:59;7.15;;;3.60;;
2662;SDS011;49701;48.072;7.800;2024-01-30T15:48:27;9.38;;;5.15;;
2662;SDS011;49701;48.072;7.800;2024-01-30T15:50:53;5.97;;;3.83;;
2662;SDS011;49701;48.072;7.800;2024-01-30T15:53:20;6.60;;;4.10;;
2662;SDS011;49701;48.072;7.800;2024-01-30T15:55:46;8.05;;;4.45;;
2662;SDS011;49701;48.072;7.800;2024-01-30T15:58:13;10.88;;;5.13;;
2662;SDS011;49701;48.072;7.800;2024-01-30T16:00:39;13.65;;;7.65;;
2662;SDS011;49701;48.072;7.800;2024-01-30T16:03:05;10.65;;;6.70;;
2662;SDS011;49701;48.072;7.800;2024-01-30T16:05:31;9.77;;;6.55;;
2662;SDS011;49701;48.072;7.800;2024-01-30T16:07:56;8.90;;;4.70;;
2662;SDS011;49701;48.072;7.800;2024-01-30T16:32:15;9.30;;;6.43;;
2662;SDS011;49701;48.072;7.800;2024-01-30T16:39:32;6.53;;;4.20;;
2662;SDS011;49701;48.072;7.800;2024-01-30T16:46:50;11.10;;;5.82;;
2662;SDS011;49701;48.072;7.800;2024-01-30T16:49:16;8.52;;;5.47;;
2662;SDS011;49701;48.072;7.800;2024-01-30T16:51:41;8.77;;;5.90;;
2662;SDS011;49701;48.072;7.800;2024-01-30T16:54:08;10.73;;;6.13;;
2662;SDS011;49701;48.072;7.800;2024-01-30T16:56:33;11.38;;;5.80;;
2662;SDS011;49701;48.072;7.800;2024-01-30T16:58:59;9.35;;;5.82;;
2662;SDS011;49701;48.072;7.800;2024-01-30T17:01:25;11.70;;;6.45;;
2662;SDS011;49701;48.072;7.800;2024-01-30T17:03:51;11.23;;;7.25;;
2662;SDS011;49701;48.072;7.800;2024-01-30T17:06:17;9.70;;;7.20;;
